sensor_id;sensor_type;location;lat;lon;timestamp;pressure;altitude;pressure_sealevel;temperature;humidity
58979;BME280;44763;50.464;30.612;2023-12-20T00:01:13;99725.69;;;8.13;100.00
58979;BME280;44763;50.464;30.612;2023-12-20T00:03:15;99716.33;;;8.27;99.54
58979;BME280;44763;50.464;30.612;2023-12-20T00:05:17;99715.77;;;8.33;99.14
58979;BME280;44763;50.464;30.612;2023-12-20T00:07:19;99711.25;;;8.41;98.08
58979;BME280;44763;50.464;30.612;2023-12-20T00:09:22;99706.39;;;8.49;97.92
58979;BME280;44763;50.464;30.612;2023-12-20T00:11:24;99699.98;;;8.54;96.98
58979;BME280;44763;50.464;30.612;2023-12-20T00:13:26;99696.60;;;8.55;96.62
58979;BME280;44763;50.464;30.612;2023-12-20T00:15:27;99694.00;;;8.61;95.95
58979;BME280;44763;50.464;30.612;2023-12-20T00:17:30;99699.53;;;8.67;95.52
58979;BME280;44763;50.464;30.612;2023-12-20T00:19:32;99696.25;;;8.72;94.60
58979;BME280;44763;50.464;30.612;2023-12-20T00:21:34;99694.20;;;8.70;94.53
58979;BME280;44763;50.464;30.612;2023-12-20T00:23:36;99696.77;;;8.74;94.36
58979;BME280;44763;50.464;30.612;2023-12-20T00:25:38;99683.95;;;8.77;93.75
58979;BME280;44763;50.464;30.612;2023-12-20T00:27:40;99686.05;;;8.84;93.02
58979;BME280;44763;50.464;30.612;2023-12-20T00:29:42;99679.47;;;8.86;92.48
58979;BME280;44763;50.464;30.612;2023-12-20T00:31:44;99673.98;;;8.88;91.10
58979;BME280;44763;50.464;30.612;2023-12-20T00:33:49;99671.55;;;8.87;91.24
58979;BME280;44763;50.464;30.612;2023-12-20T00:35:51;99664.96;;;8.91;90.78
58979;BME280;44763;50.464;30.612;2023-12-20T00:37:53;99657.29;;;8.92;90.44
58979;BME280;44763;50.464;30.612;2023-12-20T00:39:55;99652.27;;;8.94;90.19
58979;BME280;44763;50.464;30.612;2023-12-20T00:41:56;99649.95;;;8.92;90.13
58979;BME280;44763;50.464;30.612;2023-12-20T00:43:59;99642.34;;;8.91;90.15
58979;BME280;44763;50.464;30.612;2023-12-20T00:46:03;99633.69;;;8.91;90.06
58979;BME280;44763;50.464;30.612;2023-12-20T00:48:05;99628.66;;;8.87;89.97
58979;BME280;44763;50.464;30.612;2023-12-20T00:50:10;99628.69;;;8.83;90.23
58979;BME280;44763;50.464;30.612;2023-12-20T00:52:12;99627.98;;;8.80;89.51
58979;BME280;44763;50.464;30.612;2023-12-20T00:54:14;99623.91;;;8.80;89.52
58979;BME280;44763;50.464;30.612;2023-12-20T00:56:16;99621.46;;;8.81;89.90
58979;BME280;44763;50.464;30.612;2023-12-20T00:58:20;99622.02;;;8.82;89.67
58979;BME280;44763;50.464;30.612;2023-12-20T01:00:22;99622.30;;;8.82;89.72
58979;BME280;44763;50.464;30.612;2023-12-20T01:02:25;99625.59;;;8.79;88.85
58979;BME280;44763;50.464;30.612;2023-12-20T01:04:27;99624.88;;;8.82;89.35
58979;BME280;44763;50.464;30.612;2023-12-20T01:06:36;99622.54;;;8.85;89.34
58979;BME280;44763;50.464;30.612;2023-12-20T01:11:21;99612.21;;;8.90;89.47
58979;BME280;44763;50.464;30.612;2023-12-20T01:13:23;99614.89;;;8.92;89.21
58979;BME280;44763;50.464;30.612;2023-12-20T01:15:25;99610.65;;;8.95;89.26
58979;BME280;44763;50.464;30.612;2023-12-20T01:17:26;99611.52;;;9.01;89.37
58979;BME280;44763;50.464;30.612;2023-12-20T01:19:29;99608.17;;;9.06;88.55
58979;BME280;44763;50.464;30.612;2023-12-20T01:21:31;99608.93;;;9.10;87.90
58979;BME280;44763;50.464;30.612;2023-12-20T01:23:33;99602.14;;;9.10;87.71
58979;BME280;44763;50.464;30.612;2023-12-20T01:25:35;99603.91;;;9.12;87.62
58979;BME280;44763;50.464;30.612;2023-12-20T01:27:36;99602.96;;;9.16;87.54
58979;BME280;44763;50.464;30.612;2023-12-20T01:29:38;99605.80;;;9.21;87.41
58979;BME280;44763;50.464;30.612;2023-12-20T01:31:40;99598.69;;;9.24;87.50
58979;BME280;44763;50.464;30.612;2023-12-20T01:33:42;99600.71;;;9.27;87.15
58979;BME280;44763;50.464;30.612;2023-12-20T01:35:44;99597.50;;;9.31;87.04
58979;BME280;44763;50.464;30.612;2023-12-20T01:37:45;99598.21;;;9.35;86.65
58979;BME280;44763;50.464;30.612;2023-12-20T01:39:48;99593.70;;;9.40;86.70
58979;BME280;44763;50.464;30.612;2023-12-20T01:41:49;99585.33;;;9.37;86.66
58979;BME280;44763;50.464;30.612;2023-12-20T01:43:51;99580.75;;;9.38;86.81
58979;BME280;44763;50.464;30.612;2023-12-20T01:45:57;99577.20;;;9.38;87.40
58979;BME280;44763;50.464;30.612;2023-12-20T01:47:59;99573.39;;;9.40;87.30
58979;BME280;44763;50.464;30.612;2023-12-20T01:50:02;99568.23;;;9.42;86.51
58979;BME280;44763;50.464;30.612;2023-12-20T01:52:06;99567.17;;;9.42;85.98
58979;BME280;44763;50.464;30.612;2023-12-20T01:54:10;99563.66;;;9.44;86.23
58979;BME280;44763;50.464;30.612;2023-12-20T01:56:12;99565.33;;;9.42;86.03
58979;BME280;44763;50.464;30.612;2023-12-20T01:58:15;99562.63;;;9.41;85.80
58979;BME280;44763;50.464;30.612;2023-12-20T02:00:17;99561.15;;;9.41;85.78
58979;BME280;44763;50.464;30.612;2023-12-20T02:02:19;99554.61;;;9.45;85.54
58979;BME280;44763;50.464;30.612;2023-12-20T02:04:21;99552.08;;;9.44;85.04
58979;BME280;44763;50.464;30.612;2023-12-20T02:06:24;99549.88;;;9.47;85.11
58979;BME280;44763;50.464;30.612;2023-12-20T02:08:30;99542.81;;;9.50;84.90
58979;BME280;44763;50.464;30.612;2023-12-20T02:10:32;99528.77;;;9.52;84.53
58979;BME280;44763;50.464;30.612;2023-12-20T02:12:34;99529.56;;;9.59;83.95
58979;BME280;44763;50.464;30.612;2023-12-20T02:14:35;99536.98;;;9.63;84.10
58979;BME280;44763;50.464;30.612;2023-12-20T02:16:37;99534.95;;;9.65;84.28
58979;BME280;44763;50.464;30.612;2023-12-20T02:18:39;99531.26;;;9.67;83.56
58979;BME280;44763;50.464;30.612;2023-12-20T02:20:41;99532.42;;;9.73;83.42
58979;BME280;44763;50.464;30.612;2023-12-20T02:22:43;99528.54;;;9.75;83.19
58979;BME280;44763;50.464;30.612;2023-12-20T02:24:45;99530.83;;;9.71;83.24
58979;BME280;44763;50.464;30.612;2023-12-20T02:26:46;99526.52;;;9.67;83.61
58979;BME280;44763;50.464;30.612;2023-12-20T02:28:48;99533.05;;;9.66;83.58
58979;BME280;44763;50.464;30.612;2023-12-20T02:30:50;99526.23;;;9.64;83.74
58979;BME280;44763;50.464;30.612;2023-12-20T02:32:52;99527.73;;;9.63;83.60
58979;BME280;44763;50.464;30.612;2023-12-20T02:34:55;99528.19;;;9.65;83.32
58979;BME280;44763;50.464;30.612;2023-12-20T02:36:57;99522.86;;;9.61;83.40
58979;BME280;44763;50.464;30.612;2023-12-20T02:38:58;99528.87;;;9.61;83.54
58979;BME280;44763;50.464;30.612;2023-12-20T02:41:00;99531.52;;;9.62;83.41
58979;BME280;44763;50.464;30.612;2023-12-20T02:43:02;99525.48;;;9.64;83.32
58979;BME280;44763;50.464;30.612;2023-12-20T02:45:05;99522.21;;;9.66;83.46
58979;BME280;44763;50.464;30.612;2023-12-20T02:47:06;99528.36;;;9.65;83.26
58979;BME280;44763;50.464;30.612;2023-12-20T02:49:08;99524.95;;;9.66;83.34
58979;BME280;44763;50.464;30.612;2023-12-20T02:51:10;99522.41;;;9.63;83.56
58979;BME280;44763;50.464;30.612;2023-12-20T02:53:12;99513.60;;;9.56;83.62
58979;BME280;44763;50.464;30.612;2023-12-20T02:55:14;99508.40;;;9.58;83.46
58979;BME280;44763;50.464;30.612;2023-12-20T02:57:16;99507.76;;;9.58;83.51
58979;BME280;44763;50.464;30.612;2023-12-20T02:59:18;99509.70;;;9.53;83.67
58979;BME280;44763;50.464;30.612;2023-12-20T03:01:19;99501.78;;;9.53;83.64
58979;BME280;44763;50.464;30.612;2023-12-20T03:03:21;99501.11;;;9.49;83.99
58979;BME280;44763;50.464;30.612;2023-12-20T03:05:23;99498.52;;;9.44;83.50
58979;BME280;44763;50.464;30.612;2023-12-20T03:07:25;99489.59;;;9.43;83.33
58979;BME280;44763;50.464;30.612;2023-12-20T03:09:26;99488.73;;;9.42;82.95
58979;BME280;44763;50.464;30.612;2023-12-20T03:11:31;99496.29;;;9.35;83.52
58979;BME280;44763;50.464;30.612;2023-12-20T03:13:33;99499.27;;;9.33;84.29
58979;BME280;44763;50.464;30.612;2023-12-20T03:15:35;99493.73;;;9.26;84.70
58979;BME280;44763;50.464;30.612;2023-12-20T03:17:37;99496.61;;;9.23;84.57
58979;BME280;44763;50.464;30.612;2023-12-20T03:19:39;99494.54;;;9.22;84.56
58979;BME280;44763;50.464;30.612;2023-12-20T03:21:41;99485.73;;;9.22;84.67
58979;BME280;44763;50.464;30.612;2023-12-20T03:23:43;99491.17;;;9.22;84.60
58979;BME280;44763;50.464;30.612;2023-12-20T03:25:45;99495.45;;;9.15;84.70
58979;BME280;44763;50.464;30.612;2023-12-20T03:27:47;99487.85;;;9.15;84.54
58979;BME280;44763;50.464;30.612;2023-12-20T03:29:49;99491.19;;;9.14;84.98
58979;BME280;44763;50.464;30.612;2023-12-20T03:31:51;99487.91;;;9.12;85.31
58979;BME280;44763;50.464;30.612;2023-12-20T03:33:53;99485.11;;;9.09;85.24
58979;BME280;44763;50.464;30.612;2023-12-20T03:35:55;99490.20;;;9.10;85.55
58979;BME280;44763;50.464;30.612;2023-12-20T03:37:57;99497.46;;;9.07;85.41
58979;BME280;44763;50.464;30.612;2023-12-20T03:40:01;99494.84;;;9.05;85.11
58979;BME280;44763;50.464;30.612;2023-12-20T03:42:03;99503.27;;;9.05;85.00
58979;BME280;44763;50.464;30.612;2023-12-20T03:44:05;99503.45;;;9.00;85.37
58979;BME280;44763;50.464;30.612;2023-12-20T03:46:10;99506.20;;;9.01;85.22
58979;BME280;44763;50.464;30.612;2023-12-20T03:48:11;99501.42;;;9.04;85.30
58979;BME280;44763;50.464;30.612;2023-12-20T03:50:13;99502.23;;;9.06;85.29
58979;BME280;44763;50.464;30.612;2023-12-20T03:52:15;99502.73;;;9.07;85.37
58979;BME280;44763;50.464;30.612;2023-12-20T03:54:17;99499.44;;;9.11;85.10
58979;BME280;44763;50.464;30.612;2023-12-20T03:56:19;99495.44;;;9.12;85.01
58979;BME280;44763;50.464;30.612;2023-12-20T03:58:20;99503.61;;;9.07;85.48
58979;BME280;44763;50.464;30.612;2023-12-20T04:00:22;99499.36;;;9.06;85.56
58979;BME280;44763;50.464;30.612;2023-12-20T04:02:24;99500.50;;;9.09;85.49
58979;BME280;44763;50.464;30.612;2023-12-20T04:04:26;99496.76;;;9.15;85.22
58979;BME280;44763;50.464;30.612;2023-12-20T04:06:27;99500.94;;;9.14;85.34
58979;BME280;44763;50.464;30.612;2023-12-20T04:08:29;99495.27;;;9.12;85.60
58979;BME280;44763;50.464;30.612;2023-12-20T04:10:31;99496.13;;;9.08;85.70
58979;BME280;44763;50.464;30.612;2023-12-20T04:12:33;99498.63;;;9.01;85.79
58979;BME280;44763;50.464;30.612;2023-12-20T04:14:35;99498.52;;;8.95;85.83
58979;BME280;44763;50.464;30.612;2023-12-20T04:16:36;99498.43;;;8.91;86.23
58979;BME280;44763;50.464;30.612;2023-12-20T04:18:38;99497.92;;;8.90;86.33
58979;BME280;44763;50.464;30.612;2023-12-20T04:20:40;99494.88;;;8.86;86.46
58979;BME280;44763;50.464;30.612;2023-12-20T04:22:42;99491.73;;;8.77;86.88
58979;BME280;44763;50.464;30.612;2023-12-20T04:24:44;99500.67;;;8.72;86.89
58979;BME280;44763;50.464;30.612;2023-12-20T04:26:46;99504.59;;;8.71;86.94
58979;BME280;44763;50.464;30.612;2023-12-20T04:28:48;99514.78;;;8.67;86.81
58979;BME280;44763;50.464;30.612;2023-12-20T04:30:53;99516.35;;;8.62;86.50
58979;BME280;44763;50.464;30.612;2023-12-20T04:32:55;99513.46;;;8.57;86.85
58979;BME280;44763;50.464;30.612;2023-12-20T04:34:57;99516.48;;;8.57;86.74
58979;BME280;44763;50.464;30.612;2023-12-20T04:36:59;99512.02;;;8.57;86.61
58979;BME280;44763;50.464;30.612;2023-12-20T04:39:00;99511.20;;;8.55;87.16
58979;BME280;44763;50.464;30.612;2023-12-20T04:41:02;99507.43;;;8.53;87.31
58979;BME280;44763;50.464;30.612;2023-12-20T04:43:04;99508.80;;;8.49;87.23
58979;BME280;44763;50.464;30.612;2023-12-20T04:45:06;99511.67;;;8.51;86.91
58979;BME280;44763;50.464;30.612;2023-12-20T04:47:08;99508.94;;;8.52;86.83
58979;BME280;44763;50.464;30.612;2023-12-20T04:49:10;99508.54;;;8.47;87.09
58979;BME280;44763;50.464;30.612;2023-12-20T04:51:12;99505.72;;;8.43;87.16
58979;BME280;44763;50.464;30.612;2023-12-20T04:53:13;99502.44;;;8.38;87.57
58979;BME280;44763;50.464;30.612;2023-12-20T04:55:15;99502.36;;;8.38;87.57
58979;BME280;44763;50.464;30.612;2023-12-20T04:57:17;99498.63;;;8.36;87.68
58979;BME280;44763;50.464;30.612;2023-12-20T04:59:19;99499.41;;;8.36;88.00
58979;BME280;44763;50.464;30.612;2023-12-20T05:01:21;99497.52;;;8.33;88.24
58979;BME280;44763;50.464;30.612;2023-12-20T05:03:23;99499.16;;;8.35;88.42
58979;BME280;44763;50.464;30.612;2023-12-20T05:05:24;99505.68;;;8.34;88.17
58979;BME280;44763;50.464;30.612;2023-12-20T05:07:26;99510.23;;;8.36;88.17
58979;BME280;44763;50.464;30.612;2023-12-20T05:09:28;99515.85;;;8.39;88.10
58979;BME280;44763;50.464;30.612;2023-12-20T05:11:30;99519.66;;;8.40;88.22
58979;BME280;44763;50.464;30.612;2023-12-20T05:13:32;99517.49;;;8.34;88.34
58979;BME280;44763;50.464;30.612;2023-12-20T05:15:45;99514.13;;;8.32;88.45
58979;BME280;44763;50.464;30.612;2023-12-20T05:17:47;99504.18;;;8.29;88.36
58979;BME280;44763;50.464;30.612;2023-12-20T05:19:49;99502.59;;;8.24;88.74
58979;BME280;44763;50.464;30.612;2023-12-20T05:21:51;99505.14;;;8.22;88.89
58979;BME280;44763;50.464;30.612;2023-12-20T05:23:52;99508.18;;;8.18;89.34
58979;BME280;44763;50.464;30.612;2023-12-20T05:25:54;99507.84;;;8.17;89.60
58979;BME280;44763;50.464;30.612;2023-12-20T05:27:56;99500.38;;;8.16;89.58
58979;BME280;44763;50.464;30.612;2023-12-20T05:29:57;99494.77;;;8.05;89.45
58979;BME280;44763;50.464;30.612;2023-12-20T05:31:59;99502.81;;;8.10;89.87
58979;BME280;44763;50.464;30.612;2023-12-20T05:34:01;99502.84;;;8.12;89.97
58979;BME280;44763;50.464;30.612;2023-12-20T05:36:03;99505.99;;;8.09;89.95
58979;BME280;44763;50.464;30.612;2023-12-20T05:38:05;99509.04;;;8.07;90.02
58979;BME280;44763;50.464;30.612;2023-12-20T05:40:08;99509.08;;;8.06;89.71
58979;BME280;44763;50.464;30.612;2023-12-20T05:42:11;99501.64;;;8.07;89.55
58979;BME280;44763;50.464;30.612;2023-12-20T05:44:13;99500.36;;;8.05;89.78
58979;BME280;44763;50.464;30.612;2023-12-20T05:46:15;99499.29;;;8.02;90.23
58979;BME280;44763;50.464;30.612;2023-12-20T05:48:17;99501.73;;;8.02;90.06
58979;BME280;44763;50.464;30.612;2023-12-20T05:50:18;99499.57;;;8.03;90.16
58979;BME280;44763;50.464;30.612;2023-12-20T05:52:20;99502.66;;;8.06;89.64
58979;BME280;44763;50.464;30.612;2023-12-20T05:54:23;99506.98;;;8.06;89.80
58979;BME280;44763;50.464;30.612;2023-12-20T05:56:25;99508.38;;;8.06;89.76
58979;BME280;44763;50.464;30.612;2023-12-20T05:58:26;99510.45;;;8.03;89.77
58979;BME280;44763;50.464;30.612;2023-12-20T06:00:28;99512.08;;;8.04;89.73
58979;BME280;44763;50.464;30.612;2023-12-20T06:02:30;99512.15;;;8.02;89.53
58979;BME280;44763;50.464;30.612;2023-12-20T06:04:32;99512.81;;;8.00;89.69
58979;BME280;44763;50.464;30.612;2023-12-20T06:06:34;99505.10;;;8.05;89.65
58979;BME280;44763;50.464;30.612;2023-12-20T06:08:36;99507.53;;;8.07;89.57
58979;BME280;44763;50.464;30.612;2023-12-20T06:10:38;99508.43;;;8.14;89.43
58979;BME280;44763;50.464;30.612;2023-12-20T06:12:39;99510.98;;;8.16;88.88
58979;BME280;44763;50.464;30.612;2023-12-20T06:14:41;99514.93;;;8.14;88.74
58979;BME280;44763;50.464;30.612;2023-12-20T06:16:43;99516.95;;;8.16;88.56
58979;BME280;44763;50.464;30.612;2023-12-20T06:18:45;99515.36;;;8.22;87.93
58979;BME280;44763;50.464;30.612;2023-12-20T06:20:46;99505.09;;;8.19;87.89
58979;BME280;44763;50.464;30.612;2023-12-20T06:22:48;99510.04;;;8.26;87.72
58979;BME280;44763;50.464;30.612;2023-12-20T06:24:50;99516.93;;;8.30;87.60
58979;BME280;44763;50.464;30.612;2023-12-20T06:26:51;99512.36;;;8.26;87.96
58979;BME280;44763;50.464;30.612;2023-12-20T06:28:53;99508.18;;;8.23;88.06
58979;BME280;44763;50.464;30.612;2023-12-20T06:30:55;99509.94;;;8.24;88.37
58979;BME280;44763;50.464;30.612;2023-12-20T06:32:58;99504.13;;;8.27;87.94
58979;BME280;44763;50.464;30.612;2023-12-20T06:35:00;99503.73;;;8.31;88.09
58979;BME280;44763;50.464;30.612;2023-12-20T06:37:02;99502.26;;;8.43;88.13
58979;BME280;44763;50.464;30.612;2023-12-20T06:39:04;99506.06;;;8.52;87.97
58979;BME280;44763;50.464;30.612;2023-12-20T06:41:06;99505.14;;;8.61;87.47
58979;BME280;44763;50.464;30.612;2023-12-20T06:43:08;99508.63;;;8.69;87.38
58979;BME280;44763;50.464;30.612;2023-12-20T06:45:21;99499.61;;;8.80;87.54
58979;BME280;44763;50.464;30.612;2023-12-20T06:47:23;99484.95;;;8.78;87.78
58979;BME280;44763;50.464;30.612;2023-12-20T06:49:25;99498.80;;;8.94;87.69
58979;BME280;44763;50.464;30.612;2023-12-20T06:51:27;99499.56;;;9.00;87.42
58979;BME280;44763;50.464;30.612;2023-12-20T06:53:29;99501.73;;;9.07;87.33
58979;BME280;44763;50.464;30.612;2023-12-20T06:55:31;99500.04;;;9.17;86.51
58979;BME280;44763;50.464;30.612;2023-12-20T06:57:33;99503.23;;;9.19;86.18
58979;BME280;44763;50.464;30.612;2023-12-20T06:59:41;99507.94;;;9.20;86.20
58979;BME280;44763;50.464;30.612;2023-12-20T07:01:47;99505.40;;;9.20;86.46
58979;BME280;44763;50.464;30.612;2023-12-20T07:03:49;99506.92;;;9.21;85.55
58979;BME280;44763;50.464;30.612;2023-12-20T07:05:51;99512.08;;;9.21;85.00
58979;BME280;44763;50.464;30.612;2023-12-20T07:07:52;99519.70;;;9.17;84.76
58979;BME280;44763;50.464;30.612;2023-12-20T07:09:54;99520.78;;;9.20;84.77
58979;BME280;44763;50.464;30.612;2023-12-20T07:11:56;99517.34;;;9.21;84.75
58979;BME280;44763;50.464;30.612;2023-12-20T07:13:58;99506.89;;;9.19;84.76
58979;BME280;44763;50.464;30.612;2023-12-20T07:15:59;99515.45;;;9.28;84.47
58979;BME280;44763;50.464;30.612;2023-12-20T07:18:01;99511.20;;;9.28;84.70
58979;BME280;44763;50.464;30.612;2023-12-20T07:20:03;99515.94;;;9.23;85.06
58979;BME280;44763;50.464;30.612;2023-12-20T07:22:06;99517.42;;;9.19;85.32
58979;BME280;44763;50.464;30.612;2023-12-20T07:24:08;99515.30;;;9.20;85.49
58979;BME280;44763;50.464;30.612;2023-12-20T07:26:10;99516.25;;;9.22;85.66
58979;BME280;44763;50.464;30.612;2023-12-20T07:28:13;99511.84;;;9.25;86.05
58979;BME280;44763;50.464;30.612;2023-12-20T07:30:15;99510.95;;;9.27;85.86
58979;BME280;44763;50.464;30.612;2023-12-20T07:32:16;99512.64;;;9.30;85.51
58979;BME280;44763;50.464;30.612;2023-12-20T07:34:19;99514.48;;;9.34;85.60
58979;BME280;44763;50.464;30.612;2023-12-20T07:36:21;99513.00;;;9.43;85.48
58979;BME280;44763;50.464;30.612;2023-12-20T07:38:23;99503.73;;;9.50;85.19
58979;BME280;44763;50.464;30.612;2023-12-20T07:40:24;99494.45;;;9.58;85.08
58979;BME280;44763;50.464;30.612;2023-12-20T07:42:26;99487.95;;;9.68;85.11
58979;BME280;44763;50.464;30.612;2023-12-20T07:44:28;99484.61;;;9.81;85.15
58979;BME280;44763;50.464;30.612;2023-12-20T07:46:30;99483.06;;;9.98;84.87
58979;BME280;44763;50.464;30.612;2023-12-20T07:48:32;99480.88;;;10.09;84.03
58979;BME280;44763;50.464;30.612;2023-12-20T07:50:34;99479.89;;;10.16;83.88
58979;BME280;44763;50.464;30.612;2023-12-20T07:52:36;99484.77;;;10.17;84.15
58979;BME280;44763;50.464;30.612;2023-12-20T07:54:37;99480.17;;;10.15;84.32
58979;BME280;44763;50.464;30.612;2023-12-20T07:56:39;99481.61;;;10.17;84.48
58979;BME280;44763;50.464;30.612;2023-12-20T07:58:41;99477.42;;;10.16;84.71
58979;BME280;44763;50.464;30.612;2023-12-20T08:00:53;99477.55;;;10.17;85.00
58979;BME280;44763;50.464;30.612;2023-12-20T08:02:55;99471.52;;;10.22;84.78
58979;BME280;44763;50.464;30.612;2023-12-20T08:04:57;99468.03;;;10.25;84.86
58979;BME280;44763;50.464;30.612;2023-12-20T08:06:59;99474.97;;;10.29;84.86
58979;BME280;44763;50.464;30.612;2023-12-20T08:09:02;99476.86;;;10.28;85.39
58979;BME280;44763;50.464;30.612;2023-12-20T08:11:07;99483.00;;;10.34;85.00
58979;BME280;44763;50.464;30.612;2023-12-20T08:13:13;99486.13;;;10.32;85.04
58979;BME280;44763;50.464;30.612;2023-12-20T08:15:15;99490.42;;;10.35;85.27
58979;BME280;44763;50.464;30.612;2023-12-20T08:17:16;99484.89;;;10.33;85.51
58979;BME280;44763;50.464;30.612;2023-12-20T08:19:20;99477.51;;;10.38;85.78
58979;BME280;44763;50.464;30.612;2023-12-20T08:21:22;99474.96;;;10.47;86.57
58979;BME280;44763;50.464;30.612;2023-12-20T08:23:24;99474.14;;;10.57;86.82
58979;BME280;44763;50.464;30.612;2023-12-20T08:25:28;99466.11;;;10.67;86.59
58979;BME280;44763;50.464;30.612;2023-12-20T08:27:30;99454.11;;;10.77;86.87
58979;BME280;44763;50.464;30.612;2023-12-20T08:29:33;99445.52;;;10.92;86.75
58979;BME280;44763;50.464;30.612;2023-12-20T08:31:35;99439.61;;;11.06;87.32
58979;BME280;44763;50.464;30.612;2023-12-20T08:33:36;99439.12;;;11.16;87.02
58979;BME280;44763;50.464;30.612;2023-12-20T08:35:39;99442.93;;;11.23;86.51
58979;BME280;44763;50.464;30.612;2023-12-20T08:37:41;99444.92;;;11.27;86.46
58979;BME280;44763;50.464;30.612;2023-12-20T08:39:43;99442.64;;;11.32;86.58
58979;BME280;44763;50.464;30.612;2023-12-20T08:41:46;99432.77;;;11.41;87.05
58979;BME280;44763;50.464;30.612;2023-12-20T08:43:48;99422.71;;;11.47;86.87
58979;BME280;44763;50.464;30.612;2023-12-20T08:45:50;99425.56;;;11.49;85.63
58979;BME280;44763;50.464;30.612;2023-12-20T08:47:52;99422.36;;;11.49;85.92
58979;BME280;44763;50.464;30.612;2023-12-20T08:49:54;99423.82;;;11.50;85.40
58979;BME280;44763;50.464;30.612;2023-12-20T08:51:58;99428.40;;;11.49;85.23
58979;BME280;44763;50.464;30.612;2023-12-20T08:54:00;99431.88;;;11.48;84.33
58979;BME280;44763;50.464;30.612;2023-12-20T08:56:01;99427.83;;;11.48;84.83
58979;BME280;44763;50.464;30.612;2023-12-20T08:58:03;99415.36;;;11.40;84.59
58979;BME280;44763;50.464;30.612;2023-12-20T09:00:06;99427.08;;;11.48;84.52
58979;BME280;44763;50.464;30.612;2023-12-20T09:02:09;99422.18;;;11.56;84.35
58979;BME280;44763;50.464;30.612;2023-12-20T09:04:11;99417.35;;;11.58;84.38
58979;BME280;44763;50.464;30.612;2023-12-20T09:06:13;99421.01;;;11.54;83.60
58979;BME280;44763;50.464;30.612;2023-12-20T09:08:15;99423.05;;;11.51;82.99
58979;BME280;44763;50.464;30.612;2023-12-20T09:10:16;99420.34;;;11.44;82.75
58979;BME280;44763;50.464;30.612;2023-12-20T09:12:24;99417.41;;;11.34;82.53
58979;BME280;44763;50.464;30.612;2023-12-20T09:14:25;99424.50;;;11.29;82.48
58979;BME280;44763;50.464;30.612;2023-12-20T09:16:27;99425.58;;;11.21;82.60
58979;BME280;44763;50.464;30.612;2023-12-20T09:18:30;99426.39;;;11.16;82.99
58979;BME280;44763;50.464;30.612;2023-12-20T09:20:33;99408.16;;;11.06;82.55
58979;BME280;44763;50.464;30.612;2023-12-20T09:22:35;99417.23;;;11.06;81.79
58979;BME280;44763;50.464;30.612;2023-12-20T09:24:37;99416.38;;;11.03;81.53
58979;BME280;44763;50.464;30.612;2023-12-20T09:26:43;99411.05;;;11.00;80.55
58979;BME280;44763;50.464;30.612;2023-12-20T09:28:45;99414.13;;;11.00;78.71
58979;BME280;44763;50.464;30.612;2023-12-20T09:30:47;99408.81;;;10.99;77.51
58979;BME280;44763;50.464;30.612;2023-12-20T09:32:49;99403.16;;;10.97;77.28
58979;BME280;44763;50.464;30.612;2023-12-20T09:34:51;99397.53;;;10.97;76.42
58979;BME280;44763;50.464;30.612;2023-12-20T09:36:53;99382.38;;;10.86;76.53
58979;BME280;44763;50.464;30.612;2023-12-20T09:38:54;99399.15;;;10.86;76.76
58979;BME280;44763;50.464;30.612;2023-12-20T09:40:57;99404.11;;;10.85;76.43
58979;BME280;44763;50.464;30.612;2023-12-20T09:43:10;99404.35;;;10.87;76.02
58979;BME280;44763;50.464;30.612;2023-12-20T09:45:13;99398.67;;;10.91;76.39
58979;BME280;44763;50.464;30.612;2023-12-20T09:47:19;99394.35;;;11.00;76.42
58979;BME280;44763;50.464;30.612;2023-12-20T09:49:25;99394.15;;;11.07;75.77
58979;BME280;44763;50.464;30.612;2023-12-20T09:51:29;99394.66;;;11.11;75.43
58979;BME280;44763;50.464;30.612;2023-12-20T09:53:33;99390.90;;;11.15;74.88
58979;BME280;44763;50.464;30.612;2023-12-20T09:55:39;99396.15;;;11.22;73.98
58979;BME280;44763;50.464;30.612;2023-12-20T09:57:42;99398.38;;;11.26;72.76
58979;BME280;44763;50.464;30.612;2023-12-20T09:59:44;99398.98;;;11.30;72.36
58979;BME280;44763;50.464;30.612;2023-12-20T10:01:45;99401.72;;;11.36;72.69
58979;BME280;44763;50.464;30.612;2023-12-20T10:03:47;99407.38;;;11.42;72.30
58979;BME280;44763;50.464;30.612;2023-12-20T10:05:52;99408.34;;;11.46;71.86
58979;BME280;44763;50.464;30.612;2023-12-20T10:07:56;99403.48;;;11.53;71.70
58979;BME280;44763;50.464;30.612;2023-12-20T10:09:57;99396.67;;;11.59;71.59
58979;BME280;44763;50.464;30.612;2023-12-20T10:11:59;99395.42;;;11.69;70.58
58979;BME280;44763;50.464;30.612;2023-12-20T10:14:02;99392.50;;;11.79;70.75
58979;BME280;44763;50.464;30.612;2023-12-20T10:16:03;99393.39;;;11.91;70.45
58979;BME280;44763;50.464;30.612;2023-12-20T10:18:06;99394.66;;;11.96;69.46
58979;BME280;44763;50.464;30.612;2023-12-20T10:20:09;99395.05;;;12.01;69.16
58979;BME280;44763;50.464;30.612;2023-12-20T10:22:11;99389.55;;;12.11;69.39
58979;BME280;44763;50.464;30.612;2023-12-20T10:24:17;99381.27;;;12.18;69.04
58979;BME280;44763;50.464;30.612;2023-12-20T10:26:23;99377.48;;;12.26;68.94
58979;BME280;44763;50.464;30.612;2023-12-20T10:28:26;99374.34;;;12.32;68.21
58979;BME280;44763;50.464;30.612;2023-12-20T10:30:31;99375.74;;;12.38;67.45
58979;BME280;44763;50.464;30.612;2023-12-20T10:32:33;99379.78;;;12.32;66.57
58979;BME280;44763;50.464;30.612;2023-12-20T10:34:35;99376.52;;;12.24;66.68
58979;BME280;44763;50.464;30.612;2023-12-20T10:36:37;99380.45;;;12.18;66.78
58979;BME280;44763;50.464;30.612;2023-12-20T10:38:41;99374.69;;;12.18;66.87
58979;BME280;44763;50.464;30.612;2023-12-20T10:40:45;99374.77;;;12.14;67.10
58979;BME280;44763;50.464;30.612;2023-12-20T10:42:48;99374.20;;;12.07;66.68
58979;BME280;44763;50.464;30.612;2023-12-20T10:44:52;99372.64;;;12.03;66.48
58979;BME280;44763;50.464;30.612;2023-12-20T10:46:55;99364.05;;;11.93;66.20
58979;BME280;44763;50.464;30.612;2023-12-20T10:49:04;99366.70;;;11.92;66.10